Forside
METAR-TAF:

METAR-TAF

Lufthavne :

Curaçao, Nederlandske Antiller

Breddekreds: 12-12N, længdekreds: 068-58W, højde: 9 m

Aktuelle vejr

Denne rapport blev lavet for 54 minutter siden, kl. 23:00 UTC
Vind 10 kt fra østsydøst
Temperatur 27°C
Fugtighed 70%
Tryk 1011 hPa
Sigt 10 km eller mere
Nogle få skyer i en højde af 1900 ft

METAR: TNCC 252300Z 11010KT 9999 FEW019 27/21 Q1011 NOSIG

Tid: 19:54 (23:54 UTC)

Vejrudsigter

Denne rapport blev lavet for 2 timer og 24 minutter siden, kl. 21:30 UTC
Foreløbig gælder fra 26 på 00 UTC til 26 på 24 UTC
Vind 12 kt fra øst
Sigt 10 km eller mere
Spredte skyer i en højde af 1800 ft

TAF: TNCC 252130Z 2600/2624 10012KT 9999 SCT018

Vejrobservationer og prognoser fra mere end 4000 lufthavne (METAR og TAF).

De gule og røde prikker repræsenterer de meteorologiske stationer.

Flyt musen over at se navnet på stationen.

Så klik over at se vejr observationer og prognoser.

At skifte det kort: Klik på de grønne knapper med et sort kors for at zoome ind; på den grønne knap med en bindestreg for at zoome ud; eller på de grønne pile for tilstødende kort.


METAR-TAF: